This is the latest recevied weather packets stored in our database for station/object LA9UTA-13. If no packets are shown the sender has not sent any weather packets the latest 10 day(s).
| Time | Temp. | Humidity | Pressure | Rain* | Wind** | Luminosity | Snow |
|---|---|---|---|---|---|---|---|
| 1788354609 | 17.78° C | 51% | 1006.5 hPa | 0 mm | - | 55 W/m² | - |
| 1788353409 | 17.78° C | 51% | 1006.5 hPa | 0 mm | - | 154 W/m² | - |
| 1788352209 | 18.89° C | 48% | 1006.3 hPa | 0 mm | - | 114 W/m² | - |
| 1788351009 | 19.44° C | 48% | 1006.3 hPa | 0 mm | - | 499 W/m² | - |
| 1788349809 | 18.33° C | 52% | 1006.4 hPa | 0 mm | - | 83 W/m² | - |
| 1788348608 | 18.33° C | 49% | 1006.4 hPa | 0 mm | - | 190 W/m² | - |
| 1788347409 | 17.78° C | 50% | 1006.5 hPa | 0 mm | - | 468 W/m² | - |
| 1788346209 | 17.22° C | 49% | 1006.5 hPa | 0 mm | - | 314 W/m² | - |
| 1788345011 | 17.22° C | 49% | 1007.5 hPa | 0 mm | - | 421 W/m² | - |
| 1788343809 | 16.67° C | 51% | 1006.6 hPa | 0 mm | - | 404 W/m² | - |
| 1788342609 | 16.67° C | 51% | 1006.6 hPa | 0 mm | - | 392 W/m² | - |
| 1788341408 | 16.11° C | 52% | 1006.7 hPa | 0 mm | - | 368 W/m² | - |
| 1788340208 | 15.56° C | 53% | 1006.7 hPa | 0 mm | - | 341 W/m² | - |
| 1788339008 | 15.56° C | 54% | 1006.7 hPa | 0 mm | - | 317 W/m² | - |
| 1788337810 | 15.56° C | 56% | 1006.7 hPa | 0 mm | - | 287 W/m² | - |
| 1788336608 | 15° C | 59% | 1006.7 hPa | 0 mm | - | 267 W/m² | - |
| 1788335409 | 14.44° C | 59% | 1006.8 hPa | 0 mm | - | 234 W/m² | - |
| 1788334209 | 13.89° C | 66% | 1006.8 hPa | 0 mm | - | 200 W/m² | - |
| 1788333008 | 14.44° C | 70% | 1005.8 hPa | 0 mm | - | 165 W/m² | - |
| 1788331809 | 13.89° C | 76% | 1005.8 hPa | 0 mm | - | 77 W/m² | - |
| 1788330609 | 14.44° C | 77% | 1005.8 hPa | 0 mm | - | 46 W/m² | - |
| 1788329409 | 13.33° C | 83% | 1005.8 hPa | 0 mm | - | 75 W/m² | - |
| 1788325809 | 12.22° C | 90% | 1005.9 hPa | 0 mm | - | 20 W/m² | - |
| 1788324609 | 12.22° C | 90% | 1005.9 hPa | 0 mm | - | 11 W/m² | - |
| 1788298209 | 13.33° C | 90% | 1007.9 hPa | 0 mm | - | 0 W/m² | - |
* Rain latest hour (hover to see other rain measurements)
** Current wind speed in m/s (hover to see current wind gust speed)